Time;durP1;ratioP1;P1;durP2;ratioP2;P2;SDS_P1;SDS_P2;PMS_P1;PMS_P2;Temp;Humidity;BMP_temperature;BMP_pressure;BME280_temperature;BME280_humidity;BME280_pressure;Samples;Min_cycle;Max_cycle;Signal;HPM_P1;HPM_P2
2023/11/14 00:00:49;;;;;;;26.95;4.60;;;;;;;9.48;100.00;99029.69;5052504;28;20032;-83
2023/11/14 00:03:15;;;;;;;27.80;3.63;;;;;;;9.46;100.00;99040.59;5019997;28;20391;-83
2023/11/14 00:05:41;;;;;;;20.02;3.78;;;;;;;9.43;100.00;99030.31;5019362;28;20110;-83
2023/11/14 00:08:07;;;;;;;20.95;4.13;;;;;;;9.35;100.00;99029.72;5052286;28;20028;-83
2023/11/14 00:10:33;;;;;;;16.25;3.92;;;;;;;9.29;100.00;99026.03;5036327;28;20048;-83
2023/11/14 00:12:58;;;;;;;17.98;3.47;;;;;;;9.32;100.00;99038.19;5053347;28;20029;-83
2023/11/14 00:15:26;;;;;;;19.20;3.25;;;;;;;9.29;100.00;99031.38;5052237;28;20096;-83
2023/11/14 00:17:51;;;;;;;21.35;4.07;;;;;;;9.35;100.00;99032.41;5053768;28;20037;-82
2023/11/14 00:20:17;;;;;;;22.17;3.80;;;;;;;9.49;100.00;99035.88;5036173;28;20455;-83
2023/11/14 00:22:43;;;;;;;15.15;2.80;;;;;;;9.57;100.00;99031.09;5035969;28;20029;-83
2023/11/14 00:25:08;;;;;;;14.55;2.83;;;;;;;9.68;100.00;99034.97;5052546;28;20061;-83
2023/11/14 00:27:40;;;;;;;19.80;3.45;;;;;;;9.78;100.00;99035.34;5036112;28;20029;-83
2023/11/14 00:30:23;;;;;;;14.88;3.97;;;;;;;9.80;100.00;99029.78;5053190;28;20037;-82
2023/11/14 00:32:49;;;;;;;17.73;3.30;;;;;;;9.69;100.00;99025.91;5052073;28;20032;-83
2023/11/14 00:35:15;;;;;;;15.18;3.17;;;;;;;9.62;100.00;99025.91;5035730;28;20051;-83
2023/11/14 00:37:43;;;;;;;20.52;3.38;;;;;;;9.59;100.00;99026.34;5035746;28;20037;-83
2023/11/14 00:40:10;;;;;;;21.77;3.05;;;;;;;9.53;100.00;99029.88;5035274;28;20033;-83
2023/11/14 00:42:35;;;;;;;16.55;2.55;;;;;;;9.48;100.00;99036.91;5035890;28;20041;-83
2023/11/14 00:45:02;;;;;;;19.45;3.25;;;;;;;9.51;100.00;99029.25;5052458;28;20036;-84
2023/11/14 00:47:27;;;;;;;20.55;4.13;;;;;;;9.53;100.00;99027.19;5052257;28;20031;-83
2023/11/14 00:49:53;;;;;;;22.88;4.20;;;;;;;9.57;100.00;99038.31;5035814;28;20028;-84
2023/11/14 00:52:18;;;;;;;16.67;3.83;;;;;;;9.56;100.00;99029.44;5052383;28;20044;-83
2023/11/14 00:54:44;;;;;;;15.95;3.95;;;;;;;9.60;100.00;99033.34;5035554;28;20033;-82
2023/11/14 00:57:13;;;;;;;13.25;2.88;;;;;;;9.60;100.00;99027.16;5035588;28;20032;-82
2023/11/14 00:59:39;;;;;;;20.27;3.45;;;;;;;9.59;100.00;99026.34;5035865;28;20036;-83
2023/11/14 01:02:06;;;;;;;16.75;3.38;;;;;;;9.66;100.00;99021.78;5019362;28;20033;-83
2023/11/14 01:04:37;;;;;;;16.73;3.20;;;;;;;9.70;100.00;99027.53;5052579;28;20033;-83
2023/11/14 01:07:03;;;;;;;9.85;2.22;;;;;;;9.66;100.00;99023.66;5053120;28;20107;-83
2023/11/14 01:09:29;;;;;;;18.98;2.78;;;;;;;9.56;100.00;99029.44;5035626;28;20031;-83
2023/11/14 01:11:54;;;;;;;20.60;3.25;;;;;;;9.41;100.00;99029.69;5052323;28;20033;-83
2023/11/14 01:14:25;;;;;;;23.33;3.45;;;;;;;9.38;100.00;99034.66;5051800;28;20032;-84
2023/11/14 01:16:51;;;;;;;17.58;2.83;;;;;;;9.41;100.00;99034.22;5051252;28;20040;-83
2023/11/14 01:19:17;;;;;;;10.32;3.40;;;;;;;9.50;100.00;99035.66;5019344;28;20106;-82
2023/11/14 01:21:52;;;;;;;16.30;3.08;;;;;;;9.56;100.00;99037.50;5019148;28;20463;-82
2023/11/14 01:24:19;;;;;;;20.98;3.10;;;;;;;9.63;100.00;99041.00;5035455;28;20033;-83
2023/11/14 01:26:44;;;;;;;18.80;3.53;;;;;;;9.66;100.00;99045.94;5051768;28;20063;-83
2023/11/14 01:29:10;;;;;;;21.65;3.45;;;;;;;9.64;100.00;99047.19;5035247;28;20037;-83
2023/11/14 01:31:36;;;;;;;22.30;3.28;;;;;;;9.58;100.00;99051.53;5051941;28;20036;-82
2023/11/14 01:34:02;;;;;;;15.23;3.17;;;;;;;9.53;100.00;99048.66;5052088;28;20021;-83
2023/11/14 01:36:28;;;;;;;19.75;3.33;;;;;;;9.52;100.00;99046.16;5059026;28;20046;-81
2023/11/14 01:38:54;;;;;;;27.52;4.63;;;;;;;9.55;100.00;99049.28;5052210;28;20037;-83
2023/11/14 01:41:19;;;;;;;19.05;3.47;;;;;;;9.52;100.00;99048.84;5055855;28;20456;-83
2023/11/14 01:43:46;;;;;;;19.92;2.90;;;;;;;9.46;100.00;99045.16;5035072;28;20033;-82
2023/11/14 01:46:15;;;;;;;16.02;2.92;;;;;;;9.49;100.00;99057.34;5018964;28;20041;-83
2023/11/14 01:48:46;;;;;;;13.82;3.50;;;;;;;9.52;100.00;99046.16;5035622;28;20025;-83
2023/11/14 01:51:13;;;;;;;22.90;3.10;;;;;;;9.57;100.00;99057.91;5037333;28;20140;-83
2023/11/14 01:53:39;;;;;;;11.88;2.55;;;;;;;9.58;100.00;99048.00;5006056;28;20040;-83
2023/11/14 01:56:06;;;;;;;18.67;2.75;;;;;;;9.60;100.00;99048.63;5055191;28;20028;-82
2023/11/14 01:58:31;;;;;;;14.35;2.85;;;;;;;9.62;100.00;99041.19;5022302;28;20037;-82
2023/11/14 02:00:57;;;;;;;19.67;3.03;;;;;;;9.61;100.00;99035.00;5038465;28;20029;-83
2023/11/14 02:03:22;;;;;;;18.08;3.60;;;;;;;9.63;100.00;99038.31;5054820;28;20055;-83
2023/11/14 02:05:48;;;;;;;14.68;2.78;;;;;;;9.41;100.00;99045.78;5037666;28;20391;-83
2023/11/14 02:08:16;;;;;;;13.95;2.55;;;;;;;9.20;100.00;99043.34;5021788;28;20033;-83
2023/11/14 02:10:41;;;;;;;15.75;3.30;;;;;;;9.03;100.00;99041.09;5038748;28;20082;-83
2023/11/14 02:13:07;;;;;;;14.48;3.17;;;;;;;8.95;100.00;99040.50;5021954;28;20033;-83
2023/11/14 02:15:33;;;;;;;16.20;2.47;;;;;;;8.93;100.00;99047.94;5055699;28;20456;-84
2023/11/14 02:17:59;;;;;;;17.60;3.47;;;;;;;8.91;100.00;99049.97;5038536;28;20036;-83
2023/11/14 02:20:24;;;;;;;9.85;2.22;;;;;;;8.89;100.00;99044.00;5054468;28;20537;-83
2023/11/14 02:22:50;;;;;;;16.42;2.80;;;;;;;8.86;100.00;99036.38;5054478;28;20025;-83
2023/11/14 02:25:16;;;;;;;17.88;3.70;;;;;;;8.84;100.00;99038.44;5021521;28;20037;-83
2023/11/14 02:27:44;;;;;;;11.20;2.65;;;;;;;8.75;100.00;99035.13;5054440;28;20036;-83
2023/11/14 02:30:10;;;;;;;15.57;3.75;;;;;;;8.65;100.00;99040.09;5037723;28;20513;-83
2023/11/14 02:32:36;;;;;;;8.70;2.20;;;;;;;8.62;100.00;99040.50;5054570;28;20079;-83
2023/11/14 02:35:02;;;;;;;11.52;2.28;;;;;;;8.63;100.00;99044.84;5055631;28;20471;-83
2023/11/14 02:37:28;;;;;;;20.25;2.58;;;;;;;8.62;100.00;99035.97;5054231;28;20048;-83
2023/11/14 02:39:54;;;;;;;17.10;2.95;;;;;;;8.66;100.00;99039.88;5054498;28;20055;-83
2023/11/14 02:42:20;;;;;;;14.00;2.45;;;;;;;8.69;100.00;99031.44;5054434;28;20112;-83
2023/11/14 02:44:45;;;;;;;12.77;2.35;;;;;;;8.69;100.00;99039.47;5037827;28;20119;-83
2023/11/14 02:47:11;;;;;;;20.17;3.47;;;;;;;8.79;100.00;99031.84;5054173;28;20039;-83
2023/11/14 02:49:54;;;;;;;13.10;2.63;;;;;;;8.87;100.00;99021.97;5037805;28;20033;-83
2023/11/14 02:52:19;;;;;;;15.95;2.60;;;;;;;8.96;100.00;99028.75;5021283;28;20033;-82
2023/11/14 02:54:48;;;;;;;15.15;3.20;;;;;;;8.91;100.00;99033.91;5053739;28;20079;-82
2023/11/14 02:57:13;;;;;;;9.18;2.80;;;;;;;8.85;100.00;99045.47;5054022;28;20031;-83
2023/11/14 02:59:39;;;;;;;9.85;2.60;;;;;;;8.84;100.00;99039.28;5037654;28;20382;-83
2023/11/14 03:02:04;;;;;;;10.27;2.38;;;;;;;8.78;100.00;99050.81;5037032;28;20103;-83
2023/11/14 03:04:30;;;;;;;12.30;2.90;;;;;;;8.70;100.00;99042.97;5053997;28;20037;-83
2023/11/14 03:06:56;;;;;;;9.77;2.45;;;;;;;8.66;100.00;99049.78;5020594;28;20041;-83
2023/11/14 03:09:21;;;;;;;15.70;3.13;;;;;;;8.58;100.00;99045.44;5054698;28;20025;-83
2023/11/14 03:11:47;;;;;;;11.85;2.53;;;;;;;8.49;100.00;99046.66;5055028;28;20029;-84
2023/11/14 03:14:13;;;;;;;17.00;2.50;;;;;;;8.42;100.00;99046.66;5053483;28;20025;-84
2023/11/14 03:16:38;;;;;;;14.02;2.63;;;;;;;8.51;100.00;99044.59;5053986;28;20116;-83
2023/11/14 03:19:04;;;;;;;8.20;2.40;;;;;;;8.52;100.00;99056.97;5020770;28;20467;-83
2023/11/14 03:21:29;;;;;;;14.43;2.47;;;;;;;8.54;100.00;99045.00;5053618;28;20029;-83
2023/11/14 03:23:55;;;;;;;10.77;2.05;;;;;;;8.59;100.00;99044.41;5053244;28;20033;-83
2023/11/14 03:26:31;;;;;;;13.73;2.10;;;;;;;8.65;100.00;99048.94;5036899;28;20107;-83
2023/11/14 03:28:57;;;;;;;10.55;2.30;;;;;;;8.64;100.00;99049.16;5004215;28;20135;-83
2023/11/14 03:31:23;;;;;;;12.57;1.80;;;;;;;8.58;100.00;99050.81;5036858;28;20032;-84
2023/11/14 03:33:49;;;;;;;10.75;2.38;;;;;;;8.51;100.00;99060.69;5003988;28;20044;-83
2023/11/14 03:36:15;;;;;;;10.30;1.58;;;;;;;8.36;100.00;99048.28;5036593;28;20021;-84
2023/11/14 03:38:41;;;;;;;8.40;2.38;;;;;;;8.37;100.00;99049.91;5053354;28;20064;-83
2023/11/14 03:41:06;;;;;;;7.40;1.58;;;;;;;8.36;100.00;99048.28;5054236;28;20159;-83
2023/11/14 03:43:32;;;;;;;11.73;2.15;;;;;;;8.42;100.00;99052.03;5036803;28;20033;-84
2023/11/14 03:45:58;;;;;;;15.27;2.80;;;;;;;8.44;100.00;99044.63;5020050;28;20613;-83
2023/11/14 03:48:23;;;;;;;10.68;1.83;;;;;;;8.32;100.00;99036.31;5035953;28;20029;-83
2023/11/14 03:50:49;;;;;;;10.57;1.90;;;;;;;8.17;100.00;99050.91;5053385;28;20027;-83
2023/11/14 03:53:14;;;;;;;10.23;2.17;;;;;;;8.05;100.00;99046.13;5052964;28;20025;-83
2023/11/14 03:55:40;;;;;;;9.32;2.60;;;;;;;8.11;100.00;99052.53;5053103;28;20033;-83
2023/11/14 03:58:06;;;;;;;14.93;2.00;;;;;;;8.23;100.00;99048.25;5054781;28;20431;-83
2023/11/14 04:00:33;;;;;;;11.60;1.95;;;;;;;8.30;100.00;99049.06;5053008;28;20464;-83
2023/11/14 04:02:58;;;;;;;13.57;2.58;;;;;;;8.31;100.00;99042.72;5052854;28;20111;-83
2023/11/14 04:05:27;;;;;;;14.07;2.15;;;;;;;8.27;100.00;99037.94;5059345;28;20118;-83
2023/11/14 04:07:53;;;;;;;10.60;2.05;;;;;;;8.25;100.00;99040.00;5067775;28;20029;-82
2023/11/14 04:10:18;;;;;;;10.52;2.13;;;;;;;8.29;100.00;99047.44;5040021;28;20028;-83
2023/11/14 04:12:48;;;;;;;11.15;2.25;;;;;;;8.30;100.00;99045.56;5053682;28;20430;-83
2023/11/14 04:15:14;;;;;;;8.38;2.25;;;;;;;8.31;100.00;99056.09;5019824;28;20037;-83
2023/11/14 04:17:39;;;;;;;9.10;1.85;;;;;;;8.37;100.00;99049.09;5036134;28;20025;-83
2023/11/14 04:20:07;;;;;;;11.18;2.20;;;;;;;8.44;100.00;99041.09;5052834;28;20041;-82
2023/11/14 04:22:32;;;;;;;10.20;1.90;;;;;;;8.51;100.00;99041.94;5052235;28;20031;-83
2023/11/14 04:24:58;;;;;;;7.72;2.05;;;;;;;8.56;100.00;99042.97;5035989;28;20100;-83
2023/11/14 04:27:26;;;;;;;11.05;2.40;;;;;;;8.68;100.00;99048.56;5019555;28;20111;-83
2023/11/14 04:29:51;;;;;;;12.30;3.45;;;;;;;8.75;100.00;99049.34;5035972;28;20383;-84
2023/11/14 04:32:17;;;;;;;9.00;1.60;;;;;;;8.65;100.00;99048.94;5052513;28;20029;-83
2023/11/14 04:34:46;;;;;;;16.60;2.22;;;;;;;8.60;100.00;99048.75;5036076;28;20032;-83
2023/11/14 04:37:11;;;;;;;13.23;1.98;;;;;;;8.58;100.00;99043.59;5036179;28;20106;-83
2023/11/14 04:39:38;;;;;;;12.63;2.25;;;;;;;8.53;100.00;99029.16;5052426;28;20434;-82
2023/11/14 04:42:05;;;;;;;12.30;1.80;;;;;;;8.54;100.00;99030.81;5035940;28;20529;-83
2023/11/14 04:44:31;;;;;;;6.93;2.30;;;;;;;8.54;100.00;99030.81;5019304;28;20064;-83
2023/11/14 04:46:58;;;;;;;8.60;1.58;;;;;;;8.53;100.00;99037.19;5018723;28;20094;-83
2023/11/14 04:49:25;;;;;;;1.00;0.30;;;;;;;8.52;100.00;99035.53;5052428;28;20037;-83
2023/11/14 04:51:50;;;;;;;4.25;0.57;;;;;;;8.55;100.00;99029.78;5052621;28;20029;-82
2023/11/14 04:54:17;;;;;;;2.08;1.05;;;;;;;8.61;100.00;99033.50;5035897;28;20098;-82
2023/11/14 04:56:45;;;;;;;7.43;1.95;;;;;;;8.65;100.00;99032.88;5053191;28;20029;-83
2023/11/14 04:59:11;;;;;;;9.32;1.02;;;;;;;8.67;100.00;99032.66;5052318;28;20120;-83
2023/11/14 05:01:36;;;;;;;10.85;1.33;;;;;;;8.61;100.00;99028.97;5035192;28;20028;-82
2023/11/14 05:04:02;;;;;;;5.95;0.93;;;;;;;8.55;100.00;99038.66;5035338;28;20422;-82
2023/11/14 05:06:31;;;;;;;3.63;0.90;;;;;;;8.52;100.00;99041.75;5052182;28;20029;-83
2023/11/14 05:08:56;;;;;;;7.70;0.68;;;;;;;8.58;100.00;99051.63;5019183;28;20033;-83
2023/11/14 05:11:25;;;;;;;3.38;1.30;;;;;;;8.66;100.00;99052.47;5052131;28;20029;-82
2023/11/14 05:13:50;;;;;;;1.83;0.88;;;;;;;8.67;100.00;99057.59;5051761;28;20100;-83
2023/11/14 05:16:19;;;;;;;1.95;0.60;;;;;;;8.72;100.00;99078.44;5035251;28;20120;-83
2023/11/14 05:18:45;;;;;;;1.90;0.63;;;;;;;8.68;100.00;99082.53;5051833;28;20037;-82
2023/11/14 05:21:11;;;;;;;0.30;0.30;;;;;;;8.63;100.00;99080.50;5052014;28;20487;-83
2023/11/14 05:23:36;;;;;;;0.30;0.30;;;;;;;8.69;100.00;99100.28;5035577;28;20041;-83
2023/11/14 05:26:06;;;;;;;0.30;0.30;;;;;;;8.66;100.00;99088.13;5037790;28;20037;-82
2023/11/14 05:28:32;;;;;;;0.30;0.30;;;;;;;8.65;100.00;99094.47;5055444;28;20036;-82
2023/11/14 05:30:57;;;;;;;0.30;0.30;;;;;;;8.58;100.00;99105.22;5055425;28;20025;-83
2023/11/14 05:33:23;;;;;;;0.30;0.30;;;;;;;8.53;100.00;99105.00;5055863;28;20082;-82
2023/11/14 05:35:51;;;;;;;0.40;0.40;;;;;;;8.47;100.00;99103.13;5038854;28;20037;-83
2023/11/14 05:38:18;;;;;;;0.30;0.30;;;;;;;8.38;100.00;99107.78;5022351;28;20078;-83
2023/11/14 05:40:43;;;;;;;0.32;0.32;;;;;;;8.29;100.00;99100.16;5039120;28;20090;-83
2023/11/14 05:43:09;;;;;;;0.30;0.30;;;;;;;8.22;100.00;99105.50;5038589;28;20033;-83
2023/11/14 05:45:35;;;;;;;0.40;0.40;;;;;;;8.20;100.00;99112.88;5056649;28;20033;-83
2023/11/14 05:48:01;;;;;;;0.30;0.30;;;;;;;8.27;100.00;99112.94;5038736;28;20033;-82
2023/11/14 05:50:27;;;;;;;0.40;0.40;;;;;;;8.38;100.00;99115.84;5022556;28;20115;-83
2023/11/14 05:52:52;;;;;;;0.30;0.30;;;;;;;8.47;100.00;99116.53;5055335;28;20459;-83
2023/11/14 05:55:18;;;;;;;0.32;0.32;;;;;;;8.53;100.00;99118.38;5056173;28;20111;-83
2023/11/14 05:57:43;;;;;;;0.35;0.35;;;;;;;8.59;100.00;99117.56;5038507;28;20040;-83
2023/11/14 06:00:13;;;;;;;0.38;0.38;;;;;;;8.58;100.00;99120.47;5022121;28;20041;-83
2023/11/14 06:02:39;;;;;;;0.40;0.40;;;;;;;8.56;100.00;99133.22;5055272;28;20037;-83
2023/11/14 06:05:05;;;;;;;0.30;0.30;;;;;;;8.53;100.00;99139.00;5038170;28;20033;-83
2023/11/14 06:07:31;;;;;;;0.30;0.30;;;;;;;8.52;100.00;99138.19;5021927;28;20437;-83
2023/11/14 06:09:57;;;;;;;0.40;0.40;;;;;;;8.53;100.00;99137.13;5054984;28;20116;-83
2023/11/14 06:12:23;;;;;;;0.30;0.30;;;;;;;8.50;100.00;99137.53;5038340;28;20055;-83
2023/11/14 06:14:49;;;;;;;0.35;0.35;;;;;;;8.45;100.00;99141.84;5038157;28;20082;-83
2023/11/14 06:17:14;;;;;;;0.40;0.40;;;;;;;8.41;100.00;99144.09;5045386;28;20037;-83
2023/11/14 06:19:41;;;;;;;0.30;0.30;;;;;;;8.36;100.00;99155.41;5053794;28;20036;-82
2023/11/14 06:22:06;;;;;;;0.30;0.30;;;;;;;8.41;100.00;99151.31;5058428;28;20029;-83
2023/11/14 06:24:32;;;;;;;0.40;0.40;;;;;;;8.45;100.00;99153.41;5038202;28;20116;-83
2023/11/14 06:26:57;;;;;;;0.32;0.32;;;;;;;8.50;100.00;99158.16;5021185;28;20380;-83
2023/11/14 06:29:24;;;;;;;0.30;0.30;;;;;;;8.56;100.00;99155.47;5038248;28;20466;-83
2023/11/14 06:31:50;;;;;;;0.30;0.30;;;;;;;8.61;100.00;99154.88;5038225;28;20098;-83
2023/11/14 06:34:15;;;;;;;0.30;0.30;;;;;;;8.60;100.00;99150.56;5021753;28;20107;-83
2023/11/14 06:36:41;;;;;;;0.40;0.40;;;;;;;8.58;100.00;99157.97;5021098;28;20020;-84
2023/11/14 06:39:06;;;;;;;0.40;0.40;;;;;;;8.49;100.00;99164.53;5037892;28;20029;-84
2023/11/14 06:41:32;;;;;;;0.30;0.30;;;;;;;8.29;100.00;99170.63;5054105;28;20037;-82
2023/11/14 06:43:58;;;;;;;0.30;0.30;;;;;;;8.23;100.00;99186.63;5054217;28;20021;-83
2023/11/14 06:46:23;;;;;;;0.30;0.30;;;;;;;8.19;100.00;99180.03;5054555;28;20040;-84
2023/11/14 06:48:49;;;;;;;0.40;0.40;;;;;;;8.20;100.00;99189.72;5054345;28;20036;-83
2023/11/14 06:51:14;;;;;;;0.30;0.30;;;;;;;8.12;100.00;99194.22;5037397;28;20024;-83
2023/11/14 06:53:40;;;;;;;0.40;0.40;;;;;;;8.04;100.00;99198.91;5037573;28;20025;-83
2023/11/14 06:56:06;;;;;;;0.40;0.40;;;;;;;7.97;100.00;99193.53;5054125;28;20032;-83
2023/11/14 06:58:34;;;;;;;0.30;0.30;;;;;;;7.91;100.00;99196.97;5054143;28;20538;-84
2023/11/14 07:01:00;;;;;;;0.50;0.50;;;;;;;7.90;100.00;99195.31;5037641;28;20024;-83
2023/11/14 07:03:25;;;;;;;0.40;0.40;;;;;;;7.82;100.00;99198.16;5020906;28;20036;-83
2023/11/14 07:05:51;;;;;;;0.40;0.40;;;;;;;7.88;100.00;99213.44;5037498;28;20087;-83
2023/11/14 07:08:16;;;;;;;0.40;0.40;;;;;;;7.92;100.00;99207.50;5036896;28;20087;-83
2023/11/14 07:10:42;;;;;;;0.40;0.40;;;;;;;8.01;100.00;99218.03;5053888;28;20424;-83
2023/11/14 07:13:09;;;;;;;0.40;0.40;;;;;;;8.12;100.00;99222.84;5037092;28;20033;-83
2023/11/14 07:15:35;;;;;;;0.30;0.30;;;;;;;8.23;100.00;99232.16;5053812;28;20029;-83
2023/11/14 07:18:01;;;;;;;0.30;0.30;;;;;;;8.30;100.00;99233.84;5037050;28;20033;-83
2023/11/14 07:20:28;;;;;;;0.40;0.40;;;;;;;8.34;100.00;99237.78;5054812;28;20393;-83
2023/11/14 07:22:54;;;;;;;0.40;0.40;;;;;;;8.29;100.00;99234.88;5037277;28;20434;-83
2023/11/14 07:25:19;;;;;;;0.40;0.40;;;;;;;8.18;100.00;99234.59;5037020;28;20494;-83
2023/11/14 07:27:47;;;;;;;0.40;0.40;;;;;;;8.03;100.00;99240.91;5019287;28;20480;-83
2023/11/14 07:30:17;;;;;;;0.40;0.40;;;;;;;7.99;100.00;99253.03;5052914;28;20037;-83
2023/11/14 07:32:45;;;;;;;0.40;0.40;;;;;;;8.01;100.00;99255.50;5053261;28;20025;-83
2023/11/14 07:35:11;;;;;;;0.43;0.43;;;;;;;8.19;100.00;99255.81;5053279;28;20029;-83
2023/11/14 07:37:37;;;;;;;0.30;0.30;;;;;;;8.29;100.00;99267.00;5020138;28;20044;-84
2023/11/14 07:40:04;;;;;;;0.30;0.30;;;;;;;8.39;100.00;99269.38;5020233;28;20037;-83
2023/11/14 07:42:30;;;;;;;0.30;0.30;;;;;;;8.46;100.00;99275.56;5036458;28;20049;-83
2023/11/14 07:44:56;;;;;;;0.40;0.40;;;;;;;8.46;100.00;99280.09;5052774;28;20114;-84
2023/11/14 07:47:22;;;;;;;0.30;0.30;;;;;;;8.28;100.00;99276.09;5053454;28;20487;-84
2023/11/14 07:49:50;;;;;;;0.40;0.40;;;;;;;8.12;100.00;99287.94;5036441;28;20032;-84
2023/11/14 07:52:16;;;;;;;0.30;0.30;;;;;;;7.90;100.00;99283.66;5053331;28;20391;-82
2023/11/14 07:54:41;;;;;;;0.40;0.40;;;;;;;7.76;100.00;99284.56;5036200;28;20563;-84
2023/11/14 07:57:08;;;;;;;0.30;0.30;;;;;;;7.64;100.00;99295.78;5036242;28;20446;-83
2023/11/14 07:59:34;;;;;;;0.50;0.50;;;;;;;7.71;100.00;99294.00;5052840;28;20029;-83
2023/11/14 08:01:59;;;;;;;0.30;0.30;;;;;;;7.83;100.00;99298.81;5053972;28;20029;-84
2023/11/14 08:04:25;;;;;;;0.40;0.40;;;;;;;7.91;100.00;99301.34;5036272;28;20036;-83
2023/11/14 08:06:50;;;;;;;0.38;0.38;;;;;;;7.98;100.00;99310.25;5052398;28;20029;-84
2023/11/14 08:09:18;;;;;;;0.30;0.30;;;;;;;8.02;100.00;99300.84;5052488;28;20116;-84
2023/11/14 08:11:44;;;;;;;0.40;0.40;;;;;;;8.01;100.00;99317.06;5052485;28;20043;-84
2023/11/14 08:14:10;;;;;;;0.30;0.30;;;;;;;8.06;100.00;99320.81;5019525;28;20398;-84
2023/11/14 08:16:35;;;;;;;0.32;0.32;;;;;;;8.17;100.00;99326.66;5052616;28;20083;-84
2023/11/14 08:19:03;;;;;;;0.40;0.40;;;;;;;8.32;100.00;99332.75;5036199;28;20031;-84
2023/11/14 08:21:32;;;;;;;0.32;0.32;;;;;;;8.43;100.00;99336.75;5036546;28;20123;-84
2023/11/14 08:23:57;;;;;;;0.45;0.45;;;;;;;8.48;100.00;99337.00;5053145;28;20029;-83
2023/11/14 08:26:24;;;;;;;0.40;0.40;;;;;;;8.47;100.00;99346.06;5019370;28;20605;-82
2023/11/14 08:28:50;;;;;;;0.40;0.40;;;;;;;8.45;100.00;99337.41;5053462;28;20029;-83
2023/11/14 08:31:16;;;;;;;0.50;0.50;;;;;;;8.38;100.00;99343.50;5052522;28;20482;-84
2023/11/14 08:33:42;;;;;;;0.40;0.40;;;;;;;8.26;100.00;99346.94;5035522;28;20108;-83
2023/11/14 08:36:08;;;;;;;0.40;0.40;;;;;;;8.05;100.00;99359.34;5056180;28;20029;-84
2023/11/14 08:38:34;;;;;;;0.40;0.40;;;;;;;7.89;100.00;99351.59;5060096;28;20391;-83
2023/11/14 08:41:01;;;;;;;0.38;0.38;;;;;;;7.88;100.00;99372.13;5059033;28;20108;-84
2023/11/14 08:43:30;;;;;;;0.30;0.30;;;;;;;7.94;100.00;99370.56;5036154;28;20064;-84
2023/11/14 08:45:55;;;;;;;0.32;0.32;;;;;;;7.90;100.00;99370.09;5036280;28;20174;-84
2023/11/14 08:48:21;;;;;;;0.32;0.32;;;;;;;7.80;100.00;99377.63;5051719;28;20369;-85
2023/11/14 08:50:47;;;;;;;0.32;0.32;;;;;;;7.72;100.00;99372.41;5017805;28;20785;-83
2023/11/14 08:53:13;;;;;;;0.40;0.40;;;;;;;7.68;100.00;99380.00;5033361;28;20033;-84
2023/11/14 08:55:41;;;;;;;0.40;0.40;;;;;;;7.65;100.00;99376.88;5033737;28;20108;-85
2023/11/14 08:58:07;;;;;;;0.40;0.40;;;;;;;7.73;100.00;99387.47;5017264;28;20104;-85
2023/11/14 09:00:33;;;;;;;0.40;0.40;;;;;;;7.85;100.00;99387.75;5053770;28;20557;-84
2023/11/14 09:03:00;;;;;;;0.50;0.50;;;;;;;7.95;100.00;99392.81;5053879;28;20036;-85
2023/11/14 09:05:27;;;;;;;0.40;0.40;;;;;;;8.08;100.00;99395.59;5037594;28;20094;-84
2023/11/14 09:07:53;;;;;;;0.40;0.40;;;;;;;8.32;100.00;99400.53;5055549;28;20036;-85
2023/11/14 09:10:19;;;;;;;0.40;0.40;;;;;;;8.57;100.00;99398.28;5056139;28;20407;-85
2023/11/14 09:12:45;;;;;;;0.50;0.50;;;;;;;8.97;100.00;99413.72;5055689;28;20029;-86
2023/11/14 09:15:13;;;;;;;0.50;0.50;;;;;;;9.46;100.00;99404.66;5056741;28;20388;-86
2023/11/14 09:17:39;;;;;;;0.50;0.50;;;;;;;9.80;100.00;99411.78;5065010;28;20025;-85
2023/11/14 09:20:08;;;;;;;0.50;0.50;;;;;;;10.10;100.00;99417.56;5039748;28;20042;-82
2023/11/14 09:22:33;;;;;;;0.40;0.40;;;;;;;10.54;100.00;99426.09;5050504;28;20132;-86
2023/11/14 09:24:59;;;;;;;0.40;0.40;;;;;;;10.74;100.00;99428.75;5055812;28;20523;-86
2023/11/14 09:27:25;;;;;;;0.47;0.47;;;;;;;10.48;100.00;99427.75;5055911;28;20510;-86
2023/11/14 09:29:51;;;;;;;0.40;0.40;;;;;;;10.31;100.00;99431.88;5038942;28;20029;-84
2023/11/14 09:32:22;;;;;;;0.40;0.40;;;;;;;10.20;100.00;99437.84;5054902;28;20491;-85
2023/11/14 09:34:49;;;;;;;0.40;0.40;;;;;;;10.41;100.00;99448.44;5039639;28;20035;-87
2023/11/14 09:37:15;;;;;;;0.40;0.40;;;;;;;10.60;100.00;99452.13;5054926;28;20025;-86
2023/11/14 09:39:42;;;;;;;0.40;0.40;;;;;;;10.94;100.00;99467.19;5055978;28;20036;-86
2023/11/14 09:42:08;;;;;;;0.40;0.40;;;;;;;11.39;100.00;99466.44;5054952;28;20084;-85
2023/11/14 09:44:34;;;;;;;0.47;0.47;;;;;;;11.77;100.00;99465.66;5056296;28;20522;-85
2023/11/14 09:47:01;;;;;;;0.50;0.50;;;;;;;12.18;100.00;99476.03;5056028;28;20028;-85
2023/11/14 09:49:27;;;;;;;0.40;0.40;;;;;;;12.75;100.00;99481.38;5054771;28;20029;-85
2023/11/14 09:51:53;;;;;;;0.40;0.40;;;;;;;12.81;100.00;99487.75;5021829;28;20029;-83
2023/11/14 09:54:19;;;;;;;0.30;0.30;;;;;;;11.80;100.00;99474.16;5054898;28;20074;-84
2023/11/14 09:56:48;;;;;;;0.30;0.30;;;;;;;10.46;100.00;99499.69;5054695;28;20100;-85
2023/11/14 09:59:14;;;;;;;0.30;0.30;;;;;;;9.67;100.00;99489.56;5054752;28;20024;-84
2023/11/14 10:01:44;;;;;;;0.40;0.40;;;;;;;9.27;100.00;99505.50;5021615;28;20356;-83
2023/11/14 10:04:10;;;;;;;0.40;0.40;;;;;;;9.14;100.00;99516.97;5038454;28;20039;-85
2023/11/14 10:06:42;;;;;;;0.40;0.40;;;;;;;9.50;100.00;99515.94;5038114;28;20037;-85
2023/11/14 10:09:09;;;;;;;0.40;0.40;;;;;;;10.08;100.00;99521.72;5021373;28;20124;-86
2023/11/14 10:11:43;;;;;;;0.40;0.40;;;;;;;10.36;100.00;99528.81;5053400;28;20041;-85
2023/11/14 10:14:10;;;;;;;0.45;0.45;;;;;;;10.57;100.00;99531.31;5054904;28;20116;-83
2023/11/14 10:16:36;;;;;;;0.40;0.40;;;;;;;10.72;100.00;99530.31;5054427;28;20020;-85
2023/11/14 10:19:15;;;;;;;0.40;0.40;;;;;;;10.77;100.00;99535.91;5053567;28;20033;-86
2023/11/14 10:21:41;;;;;;;0.30;0.30;;;;;;;10.69;100.00;99528.00;5055266;28;20032;-84
2023/11/14 10:24:12;;;;;;;0.60;0.60;;;;;;;11.37;100.00;99542.00;5021377;28;20103;-85
2023/11/14 10:26:52;;;;;;;0.50;0.50;;;;;;;11.40;100.00;99535.38;5053880;28;20040;-85
2023/11/14 10:29:20;;;;;;;0.50;0.50;;;;;;;12.24;100.00;99539.00;5037722;28;20094;-83
2023/11/14 10:31:46;;;;;;;0.40;0.40;;;;;;;12.88;100.00;99545.16;5020694;28;20498;-85
2023/11/14 10:34:27;;;;;;;0.40;0.40;;;;;;;12.52;100.00;99544.00;5054131;28;20033;-84
2023/11/14 10:36:57;;;;;;;0.40;0.40;;;;;;;12.08;100.00;99537.63;5055122;28;20025;-85
2023/11/14 10:39:24;;;;;;;0.40;0.40;;;;;;;11.73;100.00;99567.59;5054218;28;20040;-85
2023/11/14 10:41:52;;;;;;;0.50;0.50;;;;;;;11.47;100.00;99560.41;5053989;28;20387;-85
2023/11/14 10:44:18;;;;;;;0.40;0.40;;;;;;;11.40;100.00;99564.97;5021199;28;20036;-85
2023/11/14 10:46:55;;;;;;;0.40;0.40;;;;;;;10.93;100.00;99575.81;5037119;28;20528;-82
2023/11/14 10:49:30;;;;;;;0.30;0.30;;;;;;;10.56;100.00;99575.38;5037693;28;20048;-86
2023/11/14 10:51:56;;;;;;;0.30;0.30;;;;;;;10.37;100.00;99581.53;5021914;28;20409;-84
2023/11/14 10:54:22;;;;;;;1.38;1.38;;;;;;;10.29;100.00;99589.78;5037088;28;20039;-84
2023/11/14 10:56:49;;;;;;;0.30;0.30;;;;;;;10.20;100.00;99585.59;5053709;28;20059;-84
2023/11/14 10:59:15;;;;;;;0.40;0.40;;;;;;;10.11;100.00;99603.75;5036727;28;20064;-85
2023/11/14 11:01:41;;;;;;;0.40;0.40;;;;;;;10.01;100.00;99606.00;5037405;28;20383;-84
2023/11/14 11:04:09;;;;;;;0.40;0.40;;;;;;;9.98;100.00;99609.91;5036925;28;20036;-85
2023/11/14 11:06:40;;;;;;;0.40;0.40;;;;;;;9.98;100.00;99620.63;5053541;28;20021;-84
2023/11/14 11:09:07;;;;;;;0.40;0.40;;;;;;;9.97;100.00;99624.34;5037312;28;20044;-83
2023/11/14 11:11:37;;;;;;;0.30;0.30;;;;;;;9.94;100.00;99632.78;5053933;28;20025;-85
2023/11/14 11:14:05;;;;;;;0.40;0.40;;;;;;;9.83;100.00;99628.00;5041036;28;20037;-83
2023/11/14 11:16:43;;;;;;;0.47;0.47;;;;;;;9.72;100.00;99632.06;5058501;28;20025;-84
2023/11/14 11:19:36;;;;;;;0.50;0.50;;;;;;;9.83;100.00;99634.19;5053268;28;20025;-84
2023/11/14 11:22:06;;;;;;;0.40;0.40;;;;;;;10.27;100.00;99645.56;5054039;28;20044;-85
2023/11/14 11:24:32;;;;;;;0.40;0.40;;;;;;;10.60;100.00;99644.84;5018964;28;20054;-85
2023/11/14 11:27:25;;;;;;;0.50;0.50;;;;;;;11.08;100.00;99658.16;5051532;28;20383;-84